Time;durP1;ratioP1;P1;durP2;ratioP2;P2;SDS_P1;SDS_P2;PMS_P1;PMS_P2;Temp;Humidity;BMP_temperature;BMP_pressure;BME280_temperature;BME280_humidity;BME280_pressure;Samples;Min_cycle;Max_cycle;Signal;HPM_P1;HPM_P2
2023/05/12 00:01:10;;;;;;;8.60;5.20;;;14.40;83.30;;;;;;5064869;28;20492;-67
2023/05/12 00:03:48;;;;;;;7.40;5.13;;;14.30;83.20;;;;;;5066998;28;20482;-67
2023/05/12 00:06:24;;;;;;;8.70;5.50;;;14.30;83.20;;;;;;5067650;28;20531;-67
2023/05/12 00:08:59;;;;;;;7.83;5.57;;;14.20;83.20;;;;;;5066736;28;20460;-67
2023/05/12 00:11:37;;;;;;;8.50;5.93;;;14.20;83.20;;;;;;5065432;28;20460;-67
2023/05/12 00:14:09;;;;;;;7.93;5.83;;;14.20;83.30;;;;;;5067471;28;20451;-68
2023/05/12 00:16:52;;;;;;;9.70;6.50;;;14.10;83.40;;;;;;5068316;28;21012;-67
2023/05/12 00:22:12;;;;;;;9.33;6.83;;;14.10;83.60;;;;;;5065793;28;20462;-67
2023/05/12 00:24:49;;;;;;;11.50;7.40;;;14.10;83.70;;;;;;5067222;28;20977;-67
2023/05/12 00:27:28;;;;;;;12.50;6.90;;;14.10;83.70;;;;;;5067105;28;20540;-67
2023/05/12 00:30:02;;;;;;;10.97;6.83;;;14.10;83.70;;;;;;5067450;28;20483;-67
2023/05/12 00:32:35;;;;;;;10.07;7.13;;;14.10;83.70;;;;;;5065010;28;20526;-67
2023/05/12 00:35:14;;;;;;;10.77;7.40;;;14.20;83.60;;;;;;5064839;28;20540;-67
2023/05/12 00:37:50;;;;;;;12.43;8.83;;;14.20;83.50;;;;;;5063536;28;20463;-67
2023/05/12 00:40:21;;;;;;;11.23;7.63;;;14.20;83.40;;;;;;5066444;28;20462;-67
2023/05/12 00:45:37;;;;;;;13.37;8.50;;;14.20;83.40;;;;;;5067687;28;20449;-67
2023/05/12 00:48:09;;;;;;;12.43;8.00;;;14.20;83.70;;;;;;5064978;28;20455;-67
2023/05/12 00:50:43;;;;;;;10.93;8.20;;;14.10;83.70;;;;;;5067503;28;20549;-68
2023/05/12 00:53:21;;;;;;;12.40;8.30;;;14.10;83.70;;;;;;5066697;28;20527;-67
2023/05/12 00:55:56;;;;;;;12.77;9.20;;;14.10;83.70;;;;;;5067159;28;20494;-67
2023/05/12 00:58:31;;;;;;;13.97;9.53;;;14.10;83.80;;;;;;5069116;28;20519;-67
2023/05/12 01:01:10;;;;;;;12.00;8.13;;;14.10;83.80;;;;;;5063987;28;20489;-68
2023/05/12 01:03:45;;;;;;;15.10;9.57;;;14.20;83.90;;;;;;5071084;28;20598;-67
2023/05/12 01:06:27;;;;;;;13.67;9.50;;;14.20;83.80;;;;;;5069745;28;20465;-68
2023/05/12 01:09:02;;;;;;;14.63;10.10;;;14.20;83.70;;;;;;5071538;28;20473;-67
2023/05/12 01:11:47;;;;;;;11.77;8.93;;;14.20;83.60;;;;;;5088476;28;21739;-67
2023/05/12 01:14:29;;;;;;;16.67;10.40;;;14.10;83.80;;;;;;5069815;28;20849;-67
2023/05/12 01:17:08;;;;;;;15.93;10.27;;;14.10;83.80;;;;;;5084816;28;20452;-67
2023/05/12 01:19:50;;;;;;;21.00;10.73;;;14.10;83.80;;;;;;5069382;28;20843;-67
2023/05/12 01:22:24;;;;;;;14.10;10.17;;;14.10;84.10;;;;;;5067525;28;20536;-67
2023/05/12 01:25:02;;;;;;;16.70;10.20;;;14.10;84.00;;;;;;5070135;28;20478;-67
2023/05/12 01:27:40;;;;;;;15.30;10.37;;;14.10;84.00;;;;;;5069366;28;20457;-68
2023/05/12 01:30:18;;;;;;;16.80;10.93;;;14.10;84.10;;;;;;5069587;28;20442;-68
2023/05/12 01:33:02;;;;;;;13.17;10.20;;;14.10;84.00;;;;;;5067006;28;20466;-67
2023/05/12 01:35:44;;;;;;;16.93;11.03;;;14.10;84.00;;;;;;5072008;28;20735;-67
2023/05/12 01:38:17;;;;;;;17.70;12.33;;;14.10;84.00;;;;;;5069724;28;20841;-67
2023/05/12 01:40:51;;;;;;;18.07;11.30;;;14.10;84.00;;;;;;5067433;28;20959;-67
2023/05/12 01:43:29;;;;;;;18.10;11.33;;;14.00;84.00;;;;;;5069382;28;20454;-67
2023/05/12 01:46:04;;;;;;;15.47;10.97;;;14.00;84.20;;;;;;5069516;28;20479;-67
2023/05/12 01:48:36;;;;;;;16.27;11.03;;;14.00;84.20;;;;;;5067786;28;20481;-67
2023/05/12 01:51:09;;;;;;;19.93;12.17;;;14.00;84.20;;;;;;5068172;28;20469;-68
2023/05/12 01:53:43;;;;;;;16.93;11.80;;;14.00;84.20;;;;;;5067304;28;20459;-67
2023/05/12 01:56:18;;;;;;;16.00;11.70;;;14.10;84.20;;;;;;5071030;28;21093;-67
2023/05/12 01:58:56;;;;;;;19.60;12.10;;;14.10;84.20;;;;;;5070095;28;20481;-67
2023/05/12 02:01:27;;;;;;;16.07;11.50;;;14.10;84.10;;;;;;5063075;28;20846;-67
2023/05/12 02:04:03;;;;;;;15.57;11.83;;;14.10;84.20;;;;;;5067750;28;20462;-67
2023/05/12 02:06:36;;;;;;;16.10;11.47;;;14.00;84.30;;;;;;5068912;28;21052;-67
2023/05/12 02:09:11;;;;;;;13.60;10.40;;;14.00;84.30;;;;;;5068452;28;21100;-67
2023/05/12 02:11:43;;;;;;;15.97;11.10;;;14.10;84.20;;;;;;5069086;28;20465;-67
2023/05/12 02:14:15;;;;;;;16.87;12.30;;;14.00;84.30;;;;;;5067310;28;20474;-67
2023/05/12 02:16:59;;;;;;;15.40;11.40;;;14.00;84.20;;;;;;5068439;28;20583;-67
2023/05/12 02:19:35;;;;;;;14.53;11.53;;;14.00;84.30;;;;;;5070558;28;20466;-68
2023/05/12 02:22:10;;;;;;;14.20;10.73;;;13.90;84.30;;;;;;5068503;28;20478;-67
2023/05/12 02:24:50;;;;;;;17.60;12.07;;;13.90;84.30;;;;;;5070163;28;20485;-67
2023/05/12 02:27:26;;;;;;;18.33;13.27;;;13.90;84.50;;;;;;5070183;28;20497;-68
2023/05/12 02:30:05;;;;;;;17.00;11.63;;;13.90;84.60;;;;;;5067552;28;20468;-69
2023/05/12 02:32:40;;;;;;;16.03;11.30;;;13.90;84.50;;;;;;5066479;28;20573;-67
2023/05/12 02:35:18;;;;;;;17.90;12.27;;;13.90;84.50;;;;;;5068308;28;20461;-67
2023/05/12 02:37:50;;;;;;;18.00;12.37;;;13.90;84.70;;;;;;5070466;28;20548;-67
2023/05/12 02:40:39;;;;;;;15.70;12.07;;;13.90;84.70;;;;;;5068345;28;20461;-67
2023/05/12 02:43:21;;;;;;;17.33;11.87;;;13.90;84.60;;;;;;5065876;28;20463;-67
2023/05/12 02:45:59;;;;;;;17.43;11.17;;;13.90;84.60;;;;;;5066996;28;20470;-67
2023/05/12 02:48:33;;;;;;;16.80;12.17;;;13.90;84.60;;;;;;5066689;28;20476;-67
2023/05/12 02:51:07;;;;;;;15.03;11.70;;;13.90;84.60;;;;;;5070897;28;20443;-67
2023/05/12 02:53:42;;;;;;;15.90;11.63;;;13.90;84.70;;;;;;5069450;28;21006;-67
2023/05/12 02:56:17;;;;;;;16.93;13.13;;;13.90;84.80;;;;;;5069313;28;20465;-67
2023/05/12 02:58:54;;;;;;;17.53;11.53;;;13.90;84.70;;;;;;5069116;28;20466;-67
2023/05/12 03:01:31;;;;;;;17.27;12.50;;;13.90;84.70;;;;;;5066778;28;20496;-68
2023/05/12 03:04:05;;;;;;;21.17;12.47;;;13.90;84.80;;;;;;5069199;28;20546;-67
2023/05/12 03:06:47;;;;;;;21.53;12.87;;;13.90;84.80;;;;;;5067130;28;20519;-67
2023/05/12 03:09:21;;;;;;;13.10;10.53;;;14.00;84.80;;;;;;5067242;28;20457;-67
2023/05/12 03:11:54;;;;;;;15.80;12.00;;;14.00;84.80;;;;;;5067352;28;20465;-67
2023/05/12 03:14:25;;;;;;;18.10;12.00;;;13.90;84.80;;;;;;5067322;28;20455;-67
2023/05/12 03:17:12;;;;;;;16.60;11.90;;;13.90;84.70;;;;;;5068748;28;20454;-68
2023/05/12 03:19:45;;;;;;;15.77;11.60;;;13.90;84.80;;;;;;5059337;28;20467;-68
2023/05/12 03:22:16;;;;;;;16.67;12.20;;;13.90;84.80;;;;;;5066480;28;20454;-67
2023/05/12 03:24:50;;;;;;;16.10;12.33;;;13.90;84.80;;;;;;5066443;28;21211;-67
2023/05/12 03:27:31;;;;;;;15.23;11.97;;;13.80;84.90;;;;;;5068985;28;20800;-68
2023/05/12 03:30:05;;;;;;;15.67;11.37;;;13.80;84.80;;;;;;5064051;28;20792;-68
2023/05/12 03:32:43;;;;;;;16.27;12.07;;;13.90;84.90;;;;;;5081966;28;20476;-67
2023/05/12 03:35:17;;;;;;;17.20;13.27;;;13.90;84.80;;;;;;5068566;28;20452;-67
2023/05/12 03:37:48;;;;;;;15.13;12.13;;;13.90;84.70;;;;;;5070179;28;20481;-67
2023/05/12 03:40:20;;;;;;;14.80;11.77;;;13.90;84.80;;;;;;5067651;28;20450;-67
2023/05/12 03:42:54;;;;;;;14.00;10.47;;;13.90;84.80;;;;;;5066808;28;21306;-67
2023/05/12 03:45:25;;;;;;;14.17;10.90;;;13.90;84.70;;;;;;5067854;28;20477;-68
2023/05/12 03:48:02;;;;;;;15.40;11.20;;;13.90;84.80;;;;;;5084022;28;20829;-67
2023/05/12 03:50:34;;;;;;;18.33;10.83;;;13.90;84.80;;;;;;5079005;28;20557;-67
2023/05/12 03:53:11;;;;;;;18.30;12.43;;;13.90;84.80;;;;;;5068475;28;20456;-67
2023/05/12 03:55:46;;;;;;;16.47;11.50;;;13.80;84.80;;;;;;5067558;28;20532;-67
2023/05/12 03:58:20;;;;;;;18.83;12.03;;;13.80;84.90;;;;;;5061085;28;20472;-67
2023/05/12 04:00:57;;;;;;;15.83;11.47;;;13.80;84.80;;;;;;5069705;28;20540;-67
2023/05/12 04:03:39;;;;;;;16.80;11.87;;;13.80;84.80;;;;;;5066160;28;20527;-67
2023/05/12 04:06:09;;;;;;;16.83;11.13;;;13.80;84.80;;;;;;5069797;28;20474;-67
2023/05/12 04:08:42;;;;;;;14.30;11.47;;;13.80;84.90;;;;;;5067750;28;20960;-67
2023/05/12 04:11:12;;;;;;;16.60;11.63;;;13.80;84.90;;;;;;5065242;28;20481;-67
2023/05/12 04:13:47;;;;;;;15.40;12.10;;;13.80;84.90;;;;;;5066981;28;20453;-68
2023/05/12 04:16:23;;;;;;;19.37;12.77;;;13.70;85.00;;;;;;5065334;28;20453;-68
2023/05/12 04:18:58;;;;;;;18.17;12.87;;;13.80;85.00;;;;;;5070147;28;20837;-67
2023/05/12 04:21:32;;;;;;;16.80;11.57;;;13.80;85.00;;;;;;5064618;28;20463;-67
2023/05/12 04:24:14;;;;;;;18.07;11.63;;;13.80;84.90;;;;;;5068636;28;20532;-67
2023/05/12 04:26:47;;;;;;;21.47;13.13;;;13.70;85.10;;;;;;5062770;28;20475;-67
2023/05/12 04:29:19;;;;;;;19.97;12.93;;;13.80;85.00;;;;;;5065499;28;20580;-67
2023/05/12 04:31:54;;;;;;;17.63;12.30;;;13.80;85.10;;;;;;5066972;28;20835;-67
2023/05/12 04:34:33;;;;;;;16.70;12.30;;;13.80;85.00;;;;;;5072238;28;20474;-67
2023/05/12 04:37:09;;;;;;;17.17;12.33;;;13.70;85.20;;;;;;5072972;28;20457;-67
2023/05/12 04:39:48;;;;;;;18.50;13.90;;;13.80;85.10;;;;;;5071427;28;20466;-68
2023/05/12 04:42:19;;;;;;;19.00;13.50;;;13.80;85.10;;;;;;5074731;28;20797;-67
2023/05/12 04:44:49;;;;;;;17.03;12.20;;;13.90;85.20;;;;;;5070669;28;20807;-67
2023/05/12 04:47:32;;;;;;;15.17;12.10;;;13.80;85.20;;;;;;5065364;28;20464;-67
2023/05/12 04:50:20;;;;;;;16.27;12.20;;;13.90;85.20;;;;;;5070050;28;20486;-68
2023/05/12 04:52:52;;;;;;;14.23;12.47;;;13.90;85.10;;;;;;5071306;28;20451;-67
2023/05/12 04:55:31;;;;;;;14.50;11.30;;;13.90;85.00;;;;;;5073896;28;20477;-67
2023/05/12 04:58:03;;;;;;;16.80;12.10;;;13.90;85.00;;;;;;5071812;28;20560;-67
2023/05/12 05:00:40;;;;;;;16.27;11.00;;;13.90;85.00;;;;;;5065201;28;21029;-67
2023/05/12 05:03:18;;;;;;;18.33;12.73;;;13.90;85.00;;;;;;5068308;28;20474;-68
2023/05/12 05:06:06;;;;;;;15.40;10.90;;;13.90;85.10;;;;;;5071862;28;20560;-67
2023/05/12 05:08:44;;;;;;;13.37;10.03;;;14.10;85.00;;;;;;5071152;28;20457;-67
2023/05/12 05:11:15;;;;;;;13.83;9.57;;;14.10;84.90;;;;;;5067360;28;20988;-67
2023/05/12 05:13:49;;;;;;;13.23;8.80;;;14.10;84.80;;;;;;5072292;28;20453;-67
2023/05/12 05:16:30;;;;;;;15.43;10.80;;;14.10;84.70;;;;;;5068508;28;20445;-67
2023/05/12 05:19:05;;;;;;;12.60;9.00;;;14.10;84.70;;;;;;5070291;28;20555;-67
2023/05/12 05:21:53;;;;;;;12.63;8.80;;;14.00;84.60;;;;;;5067095;28;20480;-67
2023/05/12 05:24:35;;;;;;;13.37;9.10;;;14.00;84.60;;;;;;5067091;28;20568;-66
2023/05/12 05:27:12;;;;;;;16.70;10.57;;;14.00;84.60;;;;;;5071560;28;20551;-66
2023/05/12 05:32:31;;;;;;;15.60;9.37;;;13.90;84.70;;;;;;5070931;28;20481;-66
2023/05/12 05:35:05;;;;;;;15.87;11.60;;;14.00;84.70;;;;;;5067405;28;20462;-66
2023/05/12 05:37:40;;;;;;;15.30;10.20;;;14.00;84.70;;;;;;5073553;28;20464;-66
2023/05/12 05:40:16;;;;;;;17.40;11.37;;;14.00;84.80;;;;;;5071901;28;20904;-67
2023/05/12 05:42:57;;;;;;;16.50;10.33;;;14.10;84.70;;;;;;5068555;28;20461;-66
2023/05/12 05:45:28;;;;;;;16.10;11.53;;;14.10;84.60;;;;;;5084977;28;20458;-66
2023/05/12 05:47:59;;;;;;;20.13;12.87;;;14.10;84.70;;;;;;5065582;28;20463;-66
2023/05/12 05:50:40;;;;;;;17.63;11.33;;;14.20;84.50;;;;;;5069258;28;20476;-66
2023/05/12 05:53:17;;;;;;;12.73;9.83;;;14.20;84.60;;;;;;5068958;28;20492;-66
2023/05/12 05:55:51;;;;;;;11.13;8.90;;;14.20;84.30;;;;;;5064945;28;20510;-66
2023/05/12 05:58:32;;;;;;;13.60;9.67;;;14.20;84.30;;;;;;5073000;28;20456;-67
2023/05/12 06:01:08;;;;;;;12.83;9.60;;;14.20;84.50;;;;;;5067918;28;20484;-66
2023/05/12 06:03:41;;;;;;;14.50;11.10;;;14.20;84.50;;;;;;5069346;28;20931;-66
2023/05/12 06:06:20;;;;;;;15.13;9.43;;;14.20;84.40;;;;;;5069605;28;20484;-65
2023/05/12 06:08:55;;;;;;;17.80;12.20;;;14.10;84.50;;;;;;5070706;28;20470;-65
2023/05/12 06:11:36;;;;;;;16.80;12.30;;;14.20;84.50;;;;;;5069568;28;20533;-66
2023/05/12 06:14:04;;;;;;;15.63;10.20;;;14.20;84.40;;;;;;5069601;28;20446;-66
2023/05/12 06:16:33;;;;;;;11.43;9.30;;;14.10;84.50;;;;;;5067862;28;20458;-65
2023/05/12 06:19:04;;;;;;;13.83;10.73;;;14.10;84.50;;;;;;5067071;28;20453;-66
2023/05/12 06:21:42;;;;;;;15.23;10.97;;;14.10;84.40;;;;;;5068356;28;20454;-65
2023/05/12 06:24:17;;;;;;;13.13;10.50;;;14.10;84.50;;;;;;5068286;28;20534;-65
2023/05/12 06:26:54;;;;;;;17.53;11.17;;;14.10;84.50;;;;;;5068728;28;20496;-66
2023/05/12 06:29:27;;;;;;;13.27;10.20;;;14.10;84.60;;;;;;5067724;28;20545;-65
2023/05/12 06:31:58;;;;;;;15.80;11.10;;;14.10;84.60;;;;;;5068835;28;20474;-66
2023/05/12 06:34:30;;;;;;;16.43;11.90;;;14.10;84.70;;;;;;5068051;28;20466;-66
2023/05/12 06:37:05;;;;;;;12.60;10.57;;;14.10;84.60;;;;;;5070512;28;20435;-65
2023/05/12 06:39:36;;;;;;;14.30;10.20;;;14.20;84.50;;;;;;5064984;28;21023;-66
2023/05/12 06:42:16;;;;;;;13.90;10.30;;;14.20;84.60;;;;;;5067444;28;20547;-66
2023/05/12 06:44:54;;;;;;;16.23;9.93;;;14.20;84.40;;;;;;5068346;28;20477;-66
2023/05/12 06:47:30;;;;;;;23.60;15.30;;;14.20;84.50;;;;;;5069938;28;21158;-66
2023/05/12 06:49:58;;;;;;;21.00;13.43;;;14.20;84.30;;;;;;5066445;28;20456;-67
2023/05/12 06:52:28;;;;;;;16.43;11.10;;;14.30;84.40;;;;;;5067887;28;20778;-65
2023/05/12 06:55:10;;;;;;;13.20;10.10;;;14.30;84.40;;;;;;5066095;28;20960;-66
2023/05/12 06:57:40;;;;;;;15.33;11.77;;;14.30;84.30;;;;;;5064882;28;20929;-65
2023/05/12 07:00:14;;;;;;;16.50;11.20;;;14.30;84.40;;;;;;5066294;28;20495;-65
2023/05/12 07:02:47;;;;;;;19.27;15.00;;;14.30;84.30;;;;;;5063958;28;20454;-66
2023/05/12 07:05:23;;;;;;;20.17;15.13;;;14.20;84.40;;;;;;5065782;28;20461;-66
2023/05/12 07:07:54;;;;;;;27.00;19.60;;;14.30;84.30;;;;;;5065369;28;20473;-66
2023/05/12 07:10:27;;;;;;;19.30;12.53;;;14.30;84.30;;;;;;5066492;28;20462;-65
2023/05/12 07:13:00;;;;;;;15.77;11.53;;;14.30;84.30;;;;;;5066965;28;20519;-65
2023/05/12 07:15:40;;;;;;;17.37;13.97;;;14.30;84.10;;;;;;5058023;28;20463;-65
2023/05/12 07:18:15;;;;;;;20.87;15.10;;;14.30;84.20;;;;;;5071561;28;20462;-65
2023/05/12 07:20:46;;;;;;;26.83;17.80;;;14.30;84.30;;;;;;5068393;28;20453;-65
2023/05/12 07:23:16;;;;;;;24.47;15.57;;;14.30;84.30;;;;;;5065878;28;20495;-65
2023/05/12 07:25:48;;;;;;;25.53;17.57;;;14.30;84.20;;;;;;5068538;28;20573;-66
2023/05/12 07:28:26;;;;;;;15.63;12.37;;;14.40;84.20;;;;;;5065920;28;20470;-65
2023/05/12 07:31:06;;;;;;;13.67;11.03;;;14.40;84.20;;;;;;5066687;28;20481;-66
2023/05/12 07:33:39;;;;;;;67.00;32.57;;;14.40;84.10;;;;;;5061766;28;20551;-65
2023/05/12 07:36:13;;;;;;;22.13;13.23;;;14.40;84.10;;;;;;5069540;28;20967;-65
2023/05/12 07:38:53;;;;;;;22.73;13.00;;;14.50;84.10;;;;;;5065213;28;20501;-65
2023/05/12 07:41:27;;;;;;;16.77;12.93;;;14.50;84.10;;;;;;5062038;28;20906;-65
2023/05/12 07:44:05;;;;;;;14.70;11.23;;;14.60;84.20;;;;;;5068784;28;20454;-65
2023/05/12 07:46:36;;;;;;;15.63;11.90;;;14.60;84.20;;;;;;5071207;28;21086;-65
2023/05/12 07:49:07;;;;;;;13.90;10.00;;;14.60;84.10;;;;;;5064077;28;20460;-65
2023/05/12 07:51:38;;;;;;;14.67;10.07;;;14.60;84.00;;;;;;5059474;28;21043;-65
2023/05/12 07:54:18;;;;;;;13.13;8.97;;;14.60;83.90;;;;;;5066186;28;20513;-65
2023/05/12 07:56:56;;;;;;;13.00;10.37;;;14.60;83.80;;;;;;5066209;28;20478;-65
2023/05/12 07:59:27;;;;;;;14.97;9.67;;;14.60;83.70;;;;;;5066130;28;20875;-65
2023/05/12 08:01:59;;;;;;;14.37;10.43;;;14.60;83.80;;;;;;5065493;28;20480;-65
2023/05/12 08:04:32;;;;;;;15.60;9.90;;;14.70;83.80;;;;;;5066929;28;20457;-65
2023/05/12 08:07:14;;;;;;;18.37;11.17;;;14.70;83.70;;;;;;5062459;28;21048;-65
2023/05/12 08:09:54;;;;;;;24.10;12.63;;;14.70;83.70;;;;;;5070424;28;20517;-65
2023/05/12 08:12:30;;;;;;;14.80;11.43;;;14.70;83.80;;;;;;5065412;28;20547;-66
2023/05/12 08:15:08;;;;;;;14.47;10.97;;;14.80;83.70;;;;;;5063680;28;21125;-65
2023/05/12 08:17:39;;;;;;;11.30;9.60;;;14.90;83.60;;;;;;5063911;28;20919;-65
2023/05/12 08:20:22;;;;;;;13.17;9.97;;;14.90;83.60;;;;;;5066969;28;20467;-66
2023/05/12 08:23:02;;;;;;;19.83;12.87;;;14.90;83.70;;;;;;5061124;28;20457;-65
2023/05/12 08:25:44;;;;;;;16.43;11.63;;;15.00;83.50;;;;;;5066099;28;20459;-65
2023/05/12 08:28:20;;;;;;;14.37;10.43;;;15.00;83.50;;;;;;5063737;28;20478;-66
2023/05/12 08:30:59;;;;;;;15.07;10.87;;;15.10;83.30;;;;;;5066809;28;20502;-65
2023/05/12 08:33:41;;;;;;;13.70;10.63;;;15.10;83.20;;;;;;5063240;28;20455;-65
2023/05/12 08:36:15;;;;;;;12.23;9.70;;;15.00;83.20;;;;;;5064553;28;20467;-65
2023/05/12 08:38:47;;;;;;;11.63;9.13;;;15.10;83.20;;;;;;5063777;28;20446;-67
2023/05/12 08:41:23;;;;;;;13.77;10.77;;;15.10;82.90;;;;;;5061210;28;20452;-66
2023/05/12 08:43:59;;;;;;;14.63;9.60;;;15.10;83.00;;;;;;5065098;28;20508;-65
2023/05/12 08:46:33;;;;;;;13.90;9.17;;;15.10;83.10;;;;;;5063997;28;20911;-65
2023/05/12 08:49:06;;;;;;;12.50;9.93;;;15.10;82.90;;;;;;5065002;28;20486;-65
2023/05/12 08:51:46;;;;;;;11.30;8.57;;;15.20;82.80;;;;;;5060589;28;20546;-65
2023/05/12 08:54:29;;;;;;;10.90;8.53;;;15.10;82.70;;;;;;5061601;28;20884;-65
2023/05/12 08:57:06;;;;;;;12.33;8.23;;;15.10;82.70;;;;;;5065508;28;20466;-66
2023/05/12 08:59:43;;;;;;;11.00;8.00;;;15.10;82.90;;;;;;5062134;28;20458;-65
2023/05/12 09:02:23;;;;;;;14.03;8.20;;;15.10;82.60;;;;;;5062106;28;20813;-65
2023/05/12 09:05:10;;;;;;;13.70;7.40;;;15.20;82.50;;;;;;5061571;28;20547;-65
2023/05/12 09:07:46;;;;;;;9.13;7.20;;;15.10;82.60;;;;;;5063593;28;20991;-65
2023/05/12 09:10:24;;;;;;;13.40;8.10;;;15.20;82.40;;;;;;5068019;28;20518;-65
2023/05/12 09:13:23;;;;;;;10.83;7.80;;;15.20;82.40;;;;;;5062527;28;20458;-65
2023/05/12 09:15:57;;;;;;;14.70;8.33;;;15.20;82.50;;;;;;5066579;28;20541;-65
2023/05/12 09:18:47;;;;;;;18.50;8.70;;;15.20;82.40;;;;;;5070372;28;20939;-65
2023/05/12 09:21:19;;;;;;;15.90;7.57;;;15.20;82.20;;;;;;5071579;28;20454;-65
2023/05/12 09:23:58;;;;;;;11.40;8.20;;;15.20;82.30;;;;;;5068769;28;20488;-65
2023/05/12 09:26:36;;;;;;;10.77;7.80;;;15.20;82.10;;;;;;5066979;28;20455;-65
2023/05/12 09:29:18;;;;;;;10.00;7.27;;;15.20;82.20;;;;;;5070219;28;20476;-65
2023/05/12 09:32:09;;;;;;;11.53;8.30;;;15.10;82.20;;;;;;5068318;28;20571;-65
2023/05/12 09:34:48;;;;;;;11.20;8.17;;;15.10;82.30;;;;;;5068734;28;20463;-65
2023/05/12 09:37:17;;;;;;;10.93;7.50;;;15.20;82.40;;;;;;5068979;28;20919;-65
2023/05/12 09:40:00;;;;;;;13.83;10.67;;;15.20;82.40;;;;;;5068103;28;20459;-65
2023/05/12 09:42:35;;;;;;;14.17;9.80;;;15.20;82.70;;;;;;5069238;28;20567;-65
2023/05/12 09:45:11;;;;;;;15.53;9.03;;;15.20;82.80;;;;;;5067167;28;20457;-65
2023/05/12 09:47:45;;;;;;;10.03;7.83;;;15.30;82.90;;;;;;5071030;28;20462;-65
2023/05/12 09:50:21;;;;;;;10.30;7.43;;;15.40;82.90;;;;;;5063571;28;20466;-65
2023/05/12 09:53:05;;;;;;;10.87;7.83;;;15.40;83.00;;;;;;5067993;28;20456;-65
2023/05/12 09:55:43;;;;;;;9.17;6.93;;;15.50;83.00;;;;;;5067740;28;20945;-66
2023/05/12 09:58:15;;;;;;;11.70;8.90;;;15.50;82.80;;;;;;5071057;28;21088;-65
2023/05/12 10:00:45;;;;;;;11.03;7.90;;;15.60;82.80;;;;;;5067661;28;20528;-65
2023/05/12 10:03:26;;;;;;;11.13;8.90;;;15.60;82.70;;;;;;5070497;28;20819;-65
2023/05/12 10:06:01;;;;;;;10.10;6.37;;;15.60;82.80;;;;;;5068214;28;20455;-65
2023/05/12 10:08:38;;;;;;;9.00;6.97;;;15.60;82.70;;;;;;5070460;28;20471;-65
2023/05/12 10:11:14;;;;;;;7.23;5.43;;;15.70;82.80;;;;;;5059823;28;20460;-65
2023/05/12 10:13:47;;;;;;;8.80;5.67;;;15.80;82.60;;;;;;5068904;28;20554;-65
2023/05/12 10:16:20;;;;;;;6.60;5.07;;;15.80;82.30;;;;;;5068186;28;20502;-65
2023/05/12 10:18:52;;;;;;;9.97;6.70;;;15.90;82.20;;;;;;5066725;28;20802;-65
2023/05/12 10:21:24;;;;;;;9.60;5.97;;;16.00;82.10;;;;;;5067195;28;20455;-65
2023/05/12 10:23:56;;;;;;;8.50;5.30;;;16.10;82.20;;;;;;5065841;28;20835;-66
2023/05/12 10:26:31;;;;;;;8.00;4.63;;;16.10;81.80;;;;;;5069709;28;20455;-65
2023/05/12 10:29:08;;;;;;;9.83;5.20;;;16.20;81.60;;;;;;5067017;28;21167;-65
2023/05/12 10:31:43;;;;;;;8.93;5.73;;;16.30;81.40;;;;;;5064889;28;20483;-66
2023/05/12 10:34:24;;;;;;;6.23;3.90;;;16.30;81.30;;;;;;5066462;28;20477;-65
2023/05/12 10:36:58;;;;;;;8.80;5.40;;;16.40;81.00;;;;;;5066719;28;20559;-65
2023/05/12 10:39:33;;;;;;;8.63;4.77;;;16.40;80.70;;;;;;5069164;28;20468;-65
2023/05/12 10:42:11;;;;;;;9.07;5.00;;;16.40;80.70;;;;;;5068114;28;21009;-65
2023/05/12 10:44:58;;;;;;;8.20;5.20;;;16.40;80.60;;;;;;5069935;28;20482;-65
2023/05/12 10:47:40;;;;;;;7.13;4.77;;;16.40;80.50;;;;;;5066930;28;20519;-65
2023/05/12 10:50:14;;;;;;;7.47;4.60;;;16.40;80.30;;;;;;5051831;28;20490;-65
2023/05/12 10:52:53;;;;;;;7.67;5.03;;;16.30;80.30;;;;;;5064767;28;20464;-66
2023/05/12 10:55:34;;;;;;;6.60;4.70;;;16.30;80.20;;;;;;5068058;28;20465;-66
2023/05/12 10:58:20;;;;;;;7.60;4.40;;;16.40;80.20;;;;;;5065421;28;20460;-65
2023/05/12 11:00:53;;;;;;;9.27;3.87;;;16.30;80.20;;;;;;5067537;28;20460;-65
2023/05/12 11:03:27;;;;;;;9.20;5.17;;;16.40;80.10;;;;;;5067578;28;20550;-66
2023/05/12 11:06:27;;;;;;;8.97;5.37;;;16.30;79.80;;;;;;5069087;28;20468;-65
2023/05/12 11:09:02;;;;;;;9.47;5.90;;;16.30;79.50;;;;;;5068091;28;20496;-66
2023/05/12 11:11:40;;;;;;;9.40;5.97;;;16.20;79.50;;;;;;5066842;28;20468;-65
2023/05/12 11:14:13;;;;;;;5.83;3.77;;;16.30;79.50;;;;;;5067849;28;20457;-66
2023/05/12 11:17:00;;;;;;;7.27;5.30;;;16.30;79.60;;;;;;5068752;28;20468;-65
2023/05/12 11:19:40;;;;;;;8.40;5.13;;;16.20;79.50;;;;;;5078295;28;20540;-65
2023/05/12 11:22:30;;;;;;;13.97;9.17;;;16.20;79.80;;;;;;5067937;28;20555;-66
2023/05/12 11:25:12;;;;;;;11.40;7.37;;;16.20;79.90;;;;;;5067483;28;20466;-65
2023/05/12 11:27:47;;;;;;;8.10;5.47;;;16.20;80.10;;;;;;5068311;28;20524;-65
2023/05/12 11:30:33;;;;;;;9.07;6.53;;;16.20;80.40;;;;;;5064987;28;20485;-66
2023/05/12 11:33:04;;;;;;;7.87;5.20;;;16.30;80.40;;;;;;5065010;28;20453;-65
2023/05/12 11:35:43;;;;;;;7.90;5.07;;;16.40;80.50;;;;;;5063790;28;20926;-66
2023/05/12 11:38:23;;;;;;;9.60;6.17;;;16.40;80.30;;;;;;5063050;28;20465;-65
2023/05/12 11:40:55;;;;;;;12.00;6.63;;;16.40;80.30;;;;;;5066499;28;20449;-65
2023/05/12 11:46:37;;;;;;;8.17;5.23;;;16.40;80.50;;;;;;5065984;28;20467;-65
2023/05/12 11:49:29;;;;;;;8.90;5.40;;;16.50;80.70;;;;;;5064397;28;20586;-66
2023/05/12 11:52:19;;;;;;;9.00;5.13;;;16.40;80.70;;;;;;5070149;28;20464;-65
2023/05/12 11:55:09;;;;;;;8.30;5.67;;;16.50;80.70;;;;;;5064885;28;20475;-65
2023/05/12 12:00:49;;;;;;;8.43;4.30;;;16.50;80.80;;;;;;5067190;28;20556;-65
2023/05/12 12:03:32;;;;;;;7.60;5.47;;;16.50;80.70;;;;;;5068866;28;20559;-65
2023/05/12 12:06:19;;;;;;;6.53;4.40;;;16.60;80.70;;;;;;5069258;28;20475;-65
2023/05/12 12:08:52;;;;;;;9.70;4.50;;;16.60;80.70;;;;;;5068655;28;20449;-65
2023/05/12 12:11:22;;;;;;;5.83;3.80;;;16.70;80.50;;;;;;5065122;28;20558;-65
2023/05/12 12:13:56;;;;;;;7.73;4.10;;;16.70;80.40;;;;;;5064229;28;21112;-65
2023/05/12 12:16:32;;;;;;;7.93;4.30;;;16.80;80.10;;;;;;5061527;28;21144;-65
2023/05/12 12:19:12;;;;;;;5.20;3.17;;;16.90;79.80;;;;;;5058879;28;20985;-65
2023/05/12 12:21:45;;;;;;;6.90;4.03;;;16.90;79.60;;;;;;5071062;28;20526;-65
2023/05/12 12:24:16;;;;;;;5.50;3.57;;;17.00;79.40;;;;;;5067364;28;20493;-65
2023/05/12 12:26:54;;;;;;;5.03;3.20;;;17.10;79.00;;;;;;5072137;28;21290;-65
2023/05/12 12:29:27;;;;;;;7.60;4.07;;;17.20;78.80;;;;;;5068235;28;20480;-65
2023/05/12 12:31:57;;;;;;;6.53;4.23;;;17.30;78.20;;;;;;5069596;28;20473;-65
2023/05/12 12:34:43;;;;;;;5.70;3.57;;;17.30;78.20;;;;;;5068900;28;20929;-65
2023/05/12 12:37:16;;;;;;;6.30;3.90;;;17.40;77.60;;;;;;5067152;28;20553;-65
2023/05/12 12:39:58;;;;;;;8.97;4.33;;;17.40;77.30;;;;;;5072590;28;21197;-66
2023/05/12 12:42:35;;;;;;;6.60;3.50;;;17.40;77.00;;;;;;5063843;28;20952;-66
2023/05/12 12:45:10;;;;;;;6.40;2.57;;;17.40;76.70;;;;;;5064184;28;21280;-65
2023/05/12 12:48:01;;;;;;;6.77;3.40;;;17.30;76.40;;;;;;5067265;28;20459;-66
2023/05/12 12:50:35;;;;;;;6.00;3.23;;;17.20;76.10;;;;;;5068068;28;20477;-66
2023/05/12 12:53:09;;;;;;;9.30;5.23;;;17.00;76.00;;;;;;5067443;28;21821;-65
2023/05/12 12:55:47;;;;;;;16.00;7.33;;;16.90;76.20;;;;;;5071204;28;20457;-65
2023/05/12 12:58:23;;;;;;;18.00;7.87;;;16.90;76.30;;;;;;5068059;28;20468;-65
2023/05/12 13:01:04;;;;;;;6.87;3.90;;;16.90;76.60;;;;;;5070560;28;20517;-66
2023/05/12 13:03:36;;;;;;;8.60;5.00;;;16.90;76.70;;;;;;5071635;28;20602;-66
2023/05/12 13:06:10;;;;;;;7.90;4.10;;;16.90;76.70;;;;;;5067169;28;20480;-65
2023/05/12 13:08:41;;;;;;;7.70;4.43;;;17.00;76.90;;;;;;5069342;28;20461;-66
2023/05/12 13:11:16;;;;;;;5.80;3.33;;;17.10;77.00;;;;;;5070233;28;20557;-66
2023/05/12 13:13:56;;;;;;;11.00;3.70;;;17.20;76.90;;;;;;5067348;28;20456;-66
2023/05/12 13:16:32;;;;;;;5.20;3.07;;;17.20;76.70;;;;;;5069014;28;20982;-65
2023/05/12 13:19:04;;;;;;;6.17;3.03;;;17.20;76.50;;;;;;5071969;28;20470;-66
2023/05/12 13:21:39;;;;;;;4.97;2.73;;;17.30;76.30;;;;;;5072922;28;20460;-65
2023/05/12 13:24:09;;;;;;;6.23;3.53;;;17.30;76.10;;;;;;5069316;28;20520;-66
2023/05/12 13:26:43;;;;;;;9.03;3.30;;;17.30;76.10;;;;;;5068617;28;20476;-65
2023/05/12 13:29:21;;;;;;;5.83;3.40;;;17.30;75.90;;;;;;5064440;28;20544;-65
2023/05/12 13:31:55;;;;;;;7.07;3.73;;;17.30;76.00;;;;;;5063820;28;20474;-65
2023/05/12 13:34:30;;;;;;;5.37;3.10;;;17.30;75.80;;;;;;5067747;28;20456;-66
2023/05/12 13:37:01;;;;;;;6.27;3.37;;;17.30;75.80;;;;;;5066822;28;20479;-66